sensor_id;sensor_type;location;lat;lon;timestamp;P1;durP1;ratioP1;P2;durP2;ratioP2
43837;SDS011;65998;46.256;7.534;2024-01-10T00:01:26;6.72;;;2.38;;
43837;SDS011;65998;46.256;7.534;2024-01-10T00:03:55;7.32;;;2.47;;
43837;SDS011;65998;46.256;7.534;2024-01-10T00:06:21;6.47;;;2.30;;
43837;SDS011;65998;46.256;7.534;2024-01-10T00:08:47;8.60;;;2.60;;
43837;SDS011;65998;46.256;7.534;2024-01-10T00:11:12;7.60;;;2.28;;
43837;SDS011;65998;46.256;7.534;2024-01-10T00:13:38;9.93;;;2.90;;
43837;SDS011;65998;46.256;7.534;2024-01-10T00:16:04;9.23;;;2.97;;
43837;SDS011;65998;46.256;7.534;2024-01-10T00:18:31;5.53;;;1.70;;
43837;SDS011;65998;46.256;7.534;2024-01-10T00:20:57;3.80;;;1.17;;
43837;SDS011;65998;46.256;7.534;2024-01-10T00:23:23;4.07;;;1.42;;
43837;SDS011;65998;46.256;7.534;2024-01-10T00:25:49;7.05;;;1.55;;
43837;SDS011;65998;46.256;7.534;2024-01-10T00:28:15;3.63;;;1.15;;
43837;SDS011;65998;46.256;7.534;2024-01-10T00:30:41;6.55;;;1.10;;
43837;SDS011;65998;46.256;7.534;2024-01-10T00:33:07;4.65;;;1.50;;
43837;SDS011;65998;46.256;7.534;2024-01-10T00:35:33;5.60;;;1.50;;
43837;SDS011;65998;46.256;7.534;2024-01-10T00:37:59;4.10;;;1.00;;
43837;SDS011;65998;46.256;7.534;2024-01-10T00:40:24;4.37;;;1.10;;
43837;SDS011;65998;46.256;7.534;2024-01-10T00:42:50;6.10;;;1.70;;
43837;SDS011;65998;46.256;7.534;2024-01-10T00:45:16;3.78;;;1.38;;
43837;SDS011;65998;46.256;7.534;2024-01-10T00:47:42;3.47;;;1.27;;
43837;SDS011;65998;46.256;7.534;2024-01-10T00:50:08;5.18;;;1.95;;
43837;SDS011;65998;46.256;7.534;2024-01-10T00:52:35;4.50;;;2.08;;
43837;SDS011;65998;46.256;7.534;2024-01-10T00:55:01;4.13;;;1.40;;
43837;SDS011;65998;46.256;7.534;2024-01-10T00:57:27;4.18;;;1.25;;
43837;SDS011;65998;46.256;7.534;2024-01-10T00:59:53;3.58;;;1.30;;
43837;SDS011;65998;46.256;7.534;2024-01-10T01:02:19;4.78;;;1.33;;
43837;SDS011;65998;46.256;7.534;2024-01-10T01:04:44;4.18;;;1.20;;
43837;SDS011;65998;46.256;7.534;2024-01-10T01:07:10;4.88;;;1.23;;
43837;SDS011;65998;46.256;7.534;2024-01-10T01:09:36;3.17;;;1.20;;
43837;SDS011;65998;46.256;7.534;2024-01-10T01:12:02;4.28;;;1.00;;
43837;SDS011;65998;46.256;7.534;2024-01-10T01:14:28;3.95;;;1.15;;
43837;SDS011;65998;46.256;7.534;2024-01-10T01:16:54;3.60;;;1.20;;
43837;SDS011;65998;46.256;7.534;2024-01-10T01:19:20;4.25;;;1.13;;
43837;SDS011;65998;46.256;7.534;2024-01-10T01:21:45;4.38;;;1.40;;
43837;SDS011;65998;46.256;7.534;2024-01-10T01:24:11;2.97;;;1.00;;
43837;SDS011;65998;46.256;7.534;2024-01-10T01:26:37;3.53;;;1.17;;
43837;SDS011;65998;46.256;7.534;2024-01-10T01:29:03;5.27;;;1.37;;
43837;SDS011;65998;46.256;7.534;2024-01-10T01:31:29;4.00;;;1.42;;
43837;SDS011;65998;46.256;7.534;2024-01-10T01:33:55;3.42;;;1.08;;
43837;SDS011;65998;46.256;7.534;2024-01-10T01:36:21;4.75;;;1.17;;
43837;SDS011;65998;46.256;7.534;2024-01-10T01:38:47;5.30;;;1.10;;
43837;SDS011;65998;46.256;7.534;2024-01-10T01:41:13;2.85;;;0.88;;
43837;SDS011;65998;46.256;7.534;2024-01-10T01:43:39;4.80;;;0.90;;
43837;SDS011;65998;46.256;7.534;2024-01-10T01:46:05;2.60;;;0.90;;
43837;SDS011;65998;46.256;7.534;2024-01-10T01:48:30;3.55;;;0.90;;
43837;SDS011;65998;46.256;7.534;2024-01-10T01:50:58;2.30;;;0.50;;
43837;SDS011;65998;46.256;7.534;2024-01-10T01:53:29;2.58;;;0.77;;
43837;SDS011;65998;46.256;7.534;2024-01-10T01:55:56;6.90;;;1.10;;
43837;SDS011;65998;46.256;7.534;2024-01-10T01:58:22;3.05;;;1.02;;
43837;SDS011;65998;46.256;7.534;2024-01-10T02:00:49;3.33;;;0.90;;
43837;SDS011;65998;46.256;7.534;2024-01-10T02:03:15;3.78;;;1.08;;
43837;SDS011;65998;46.256;7.534;2024-01-10T02:05:41;3.25;;;0.90;;
43837;SDS011;65998;46.256;7.534;2024-01-10T02:08:08;4.30;;;0.73;;
43837;SDS011;65998;46.256;7.534;2024-01-10T02:10:34;2.65;;;0.65;;
43837;SDS011;65998;46.256;7.534;2024-01-10T02:13:00;3.25;;;1.00;;
43837;SDS011;65998;46.256;7.534;2024-01-10T02:15:27;3.13;;;1.00;;
43837;SDS011;65998;46.256;7.534;2024-01-10T02:17:53;3.70;;;0.87;;
43837;SDS011;65998;46.256;7.534;2024-01-10T02:20:19;3.35;;;0.80;;
43837;SDS011;65998;46.256;7.534;2024-01-10T02:22:44;4.20;;;0.90;;
43837;SDS011;65998;46.256;7.534;2024-01-10T02:25:11;5.10;;;0.80;;
43837;SDS011;65998;46.256;7.534;2024-01-10T02:27:38;4.78;;;1.00;;
43837;SDS011;65998;46.256;7.534;2024-01-10T02:30:05;3.95;;;1.00;;
43837;SDS011;65998;46.256;7.534;2024-01-10T02:32:32;3.25;;;0.77;;
43837;SDS011;65998;46.256;7.534;2024-01-10T02:34:59;3.13;;;0.90;;
43837;SDS011;65998;46.256;7.534;2024-01-10T02:37:25;4.33;;;1.57;;
43837;SDS011;65998;46.256;7.534;2024-01-10T02:39:51;4.22;;;1.10;;
43837;SDS011;65998;46.256;7.534;2024-01-10T02:42:16;5.43;;;1.30;;
43837;SDS011;65998;46.256;7.534;2024-01-10T02:44:43;3.58;;;0.80;;
43837;SDS011;65998;46.256;7.534;2024-01-10T02:47:09;3.88;;;0.95;;
43837;SDS011;65998;46.256;7.534;2024-01-10T02:49:36;4.60;;;1.40;;
43837;SDS011;65998;46.256;7.534;2024-01-10T02:52:02;4.20;;;1.40;;
43837;SDS011;65998;46.256;7.534;2024-01-10T02:54:28;4.45;;;1.17;;
43837;SDS011;65998;46.256;7.534;2024-01-10T02:56:54;3.33;;;1.10;;
43837;SDS011;65998;46.256;7.534;2024-01-10T02:59:20;4.07;;;1.10;;
43837;SDS011;65998;46.256;7.534;2024-01-10T03:01:45;2.97;;;0.73;;
43837;SDS011;65998;46.256;7.534;2024-01-10T03:04:11;2.45;;;0.90;;
43837;SDS011;65998;46.256;7.534;2024-01-10T03:06:37;3.38;;;1.02;;
43837;SDS011;65998;46.256;7.534;2024-01-10T03:09:03;3.60;;;0.93;;
43837;SDS011;65998;46.256;7.534;2024-01-10T03:11:29;3.67;;;1.15;;
43837;SDS011;65998;46.256;7.534;2024-01-10T03:14:02;3.67;;;1.20;;
43837;SDS011;65998;46.256;7.534;2024-01-10T03:16:29;4.50;;;1.50;;
43837;SDS011;65998;46.256;7.534;2024-01-10T03:18:56;3.67;;;1.05;;
43837;SDS011;65998;46.256;7.534;2024-01-10T03:21:22;5.90;;;1.53;;
43837;SDS011;65998;46.256;7.534;2024-01-10T03:23:48;5.05;;;1.65;;
43837;SDS011;65998;46.256;7.534;2024-01-10T03:26:13;4.97;;;1.40;;
43837;SDS011;65998;46.256;7.534;2024-01-10T03:28:39;4.40;;;1.40;;
43837;SDS011;65998;46.256;7.534;2024-01-10T03:31:05;4.30;;;1.27;;
43837;SDS011;65998;46.256;7.534;2024-01-10T03:33:31;6.33;;;1.20;;
43837;SDS011;65998;46.256;7.534;2024-01-10T03:35:58;5.18;;;1.60;;
43837;SDS011;65998;46.256;7.534;2024-01-10T03:38:24;4.30;;;1.67;;
43837;SDS011;65998;46.256;7.534;2024-01-10T03:40:49;4.40;;;0.97;;
43837;SDS011;65998;46.256;7.534;2024-01-10T03:43:15;3.53;;;1.00;;
43837;SDS011;65998;46.256;7.534;2024-01-10T03:45:41;4.20;;;1.15;;
43837;SDS011;65998;46.256;7.534;2024-01-10T03:48:07;7.40;;;1.52;;
43837;SDS011;65998;46.256;7.534;2024-01-10T03:50:33;4.22;;;1.15;;
43837;SDS011;65998;46.256;7.534;2024-01-10T03:52:59;3.80;;;0.85;;
43837;SDS011;65998;46.256;7.534;2024-01-10T03:55:24;5.30;;;1.35;;
43837;SDS011;65998;46.256;7.534;2024-01-10T03:57:51;4.10;;;1.17;;
43837;SDS011;65998;46.256;7.534;2024-01-10T04:00:16;4.13;;;1.00;;
43837;SDS011;65998;46.256;7.534;2024-01-10T04:02:42;3.97;;;1.05;;
43837;SDS011;65998;46.256;7.534;2024-01-10T04:05:08;4.35;;;1.17;;
43837;SDS011;65998;46.256;7.534;2024-01-10T04:07:36;4.93;;;1.60;;
43837;SDS011;65998;46.256;7.534;2024-01-10T04:10:02;4.20;;;1.42;;
43837;SDS011;65998;46.256;7.534;2024-01-10T04:12:28;6.38;;;1.90;;
43837;SDS011;65998;46.256;7.534;2024-01-10T04:14:54;5.40;;;1.60;;
43837;SDS011;65998;46.256;7.534;2024-01-10T04:17:20;4.45;;;1.48;;
43837;SDS011;65998;46.256;7.534;2024-01-10T04:19:46;3.97;;;1.48;;
43837;SDS011;65998;46.256;7.534;2024-01-10T04:22:12;5.88;;;1.40;;
43837;SDS011;65998;46.256;7.534;2024-01-10T04:24:37;4.03;;;1.10;;
43837;SDS011;65998;46.256;7.534;2024-01-10T04:27:03;2.95;;;1.05;;
43837;SDS011;65998;46.256;7.534;2024-01-10T04:29:29;4.20;;;0.90;;
43837;SDS011;65998;46.256;7.534;2024-01-10T04:31:55;2.95;;;0.95;;
43837;SDS011;65998;46.256;7.534;2024-01-10T04:34:21;3.22;;;0.77;;
43837;SDS011;65998;46.256;7.534;2024-01-10T04:36:47;3.13;;;1.10;;
43837;SDS011;65998;46.256;7.534;2024-01-10T04:39:13;3.00;;;0.80;;
43837;SDS011;65998;46.256;7.534;2024-01-10T04:41:39;4.47;;;1.02;;
43837;SDS011;65998;46.256;7.534;2024-01-10T04:44:04;5.10;;;0.90;;
43837;SDS011;65998;46.256;7.534;2024-01-10T04:46:30;2.92;;;0.80;;
43837;SDS011;65998;46.256;7.534;2024-01-10T04:48:56;2.70;;;0.73;;
43837;SDS011;65998;46.256;7.534;2024-01-10T04:51:22;5.50;;;0.90;;
43837;SDS011;65998;46.256;7.534;2024-01-10T04:53:48;2.90;;;0.80;;
43837;SDS011;65998;46.256;7.534;2024-01-10T04:56:14;3.45;;;0.90;;
43837;SDS011;65998;46.256;7.534;2024-01-10T04:58:40;3.55;;;0.60;;
43837;SDS011;65998;46.256;7.534;2024-01-10T05:01:06;3.30;;;0.80;;
43837;SDS011;65998;46.256;7.534;2024-01-10T05:03:31;3.47;;;0.80;;
43837;SDS011;65998;46.256;7.534;2024-01-10T05:05:57;3.53;;;0.70;;
43837;SDS011;65998;46.256;7.534;2024-01-10T05:08:23;2.17;;;0.60;;
43837;SDS011;65998;46.256;7.534;2024-01-10T05:10:49;3.67;;;1.00;;
43837;SDS011;65998;46.256;7.534;2024-01-10T05:13:14;4.80;;;0.80;;
43837;SDS011;65998;46.256;7.534;2024-01-10T05:15:40;2.28;;;0.60;;
43837;SDS011;65998;46.256;7.534;2024-01-10T05:18:06;2.85;;;0.90;;
43837;SDS011;65998;46.256;7.534;2024-01-10T05:20:32;7.83;;;2.23;;
43837;SDS011;65998;46.256;7.534;2024-01-10T05:22:58;6.10;;;1.63;;
43837;SDS011;65998;46.256;7.534;2024-01-10T05:25:24;5.07;;;1.80;;
43837;SDS011;65998;46.256;7.534;2024-01-10T05:27:50;8.50;;;2.80;;
43837;SDS011;65998;46.256;7.534;2024-01-10T05:30:16;9.60;;;3.63;;
43837;SDS011;65998;46.256;7.534;2024-01-10T05:32:43;8.32;;;2.90;;
43837;SDS011;65998;46.256;7.534;2024-01-10T05:35:09;4.43;;;1.50;;
43837;SDS011;65998;46.256;7.534;2024-01-10T05:37:35;4.88;;;1.40;;
43837;SDS011;65998;46.256;7.534;2024-01-10T05:40:02;3.80;;;1.20;;
43837;SDS011;65998;46.256;7.534;2024-01-10T05:42:29;4.13;;;1.30;;
43837;SDS011;65998;46.256;7.534;2024-01-10T05:44:55;3.75;;;1.63;;
43837;SDS011;65998;46.256;7.534;2024-01-10T05:47:20;5.43;;;1.15;;
43837;SDS011;65998;46.256;7.534;2024-01-10T05:49:46;6.43;;;1.60;;
43837;SDS011;65998;46.256;7.534;2024-01-10T05:52:12;5.05;;;2.15;;
43837;SDS011;65998;46.256;7.534;2024-01-10T05:54:38;4.43;;;1.70;;
43837;SDS011;65998;46.256;7.534;2024-01-10T05:57:04;3.03;;;1.23;;
43837;SDS011;65998;46.256;7.534;2024-01-10T05:59:30;9.07;;;1.52;;
43837;SDS011;65998;46.256;7.534;2024-01-10T06:01:56;3.63;;;1.33;;
43837;SDS011;65998;46.256;7.534;2024-01-10T06:04:22;3.50;;;1.10;;
43837;SDS011;65998;46.256;7.534;2024-01-10T06:06:48;2.65;;;0.82;;
43837;SDS011;65998;46.256;7.534;2024-01-10T06:09:14;3.80;;;1.20;;
43837;SDS011;65998;46.256;7.534;2024-01-10T06:11:40;3.23;;;0.90;;
43837;SDS011;65998;46.256;7.534;2024-01-10T06:14:07;4.28;;;1.08;;
43837;SDS011;65998;46.256;7.534;2024-01-10T06:16:33;4.97;;;1.00;;
43837;SDS011;65998;46.256;7.534;2024-01-10T06:18:59;4.13;;;1.15;;
43837;SDS011;65998;46.256;7.534;2024-01-10T06:21:25;5.15;;;1.70;;
43837;SDS011;65998;46.256;7.534;2024-01-10T06:23:50;9.93;;;2.28;;
43837;SDS011;65998;46.256;7.534;2024-01-10T06:26:16;5.50;;;1.80;;
43837;SDS011;65998;46.256;7.534;2024-01-10T06:28:42;5.63;;;1.55;;
43837;SDS011;65998;46.256;7.534;2024-01-10T06:31:08;5.03;;;0.93;;
43837;SDS011;65998;46.256;7.534;2024-01-10T06:33:34;2.78;;;0.90;;
43837;SDS011;65998;46.256;7.534;2024-01-10T06:36:00;3.87;;;1.07;;
43837;SDS011;65998;46.256;7.534;2024-01-10T06:38:25;3.10;;;1.00;;
43837;SDS011;65998;46.256;7.534;2024-01-10T06:40:51;3.10;;;0.90;;
43837;SDS011;65998;46.256;7.534;2024-01-10T06:43:17;7.22;;;1.20;;
43837;SDS011;65998;46.256;7.534;2024-01-10T06:45:43;5.35;;;0.80;;
43837;SDS011;65998;46.256;7.534;2024-01-10T06:48:09;3.93;;;1.33;;
43837;SDS011;65998;46.256;7.534;2024-01-10T06:50:35;4.03;;;1.30;;
43837;SDS011;65998;46.256;7.534;2024-01-10T06:53:01;6.07;;;1.80;;
43837;SDS011;65998;46.256;7.534;2024-01-10T06:55:27;6.13;;;1.47;;
43837;SDS011;65998;46.256;7.534;2024-01-10T06:57:53;3.55;;;1.13;;
43837;SDS011;65998;46.256;7.534;2024-01-10T07:00:19;3.03;;;1.03;;
43837;SDS011;65998;46.256;7.534;2024-01-10T07:02:49;5.53;;;1.10;;
43837;SDS011;65998;46.256;7.534;2024-01-10T07:05:15;6.57;;;1.50;;
43837;SDS011;65998;46.256;7.534;2024-01-10T07:07:41;4.00;;;1.38;;
43837;SDS011;65998;46.256;7.534;2024-01-10T07:10:07;3.90;;;1.20;;
43837;SDS011;65998;46.256;7.534;2024-01-10T07:12:33;4.35;;;1.00;;
43837;SDS011;65998;46.256;7.534;2024-01-10T07:15:00;4.40;;;1.00;;
43837;SDS011;65998;46.256;7.534;2024-01-10T07:17:26;2.13;;;0.50;;
43837;SDS011;65998;46.256;7.534;2024-01-10T07:19:52;2.30;;;0.80;;
43837;SDS011;65998;46.256;7.534;2024-01-10T07:22:18;3.17;;;0.77;;
43837;SDS011;65998;46.256;7.534;2024-01-10T07:24:43;3.20;;;1.00;;
43837;SDS011;65998;46.256;7.534;2024-01-10T07:27:09;4.15;;;1.00;;
43837;SDS011;65998;46.256;7.534;2024-01-10T07:29:35;4.47;;;1.02;;
43837;SDS011;65998;46.256;7.534;2024-01-10T07:32:01;3.97;;;1.10;;
43837;SDS011;65998;46.256;7.534;2024-01-10T07:34:27;5.55;;;2.58;;
43837;SDS011;65998;46.256;7.534;2024-01-10T07:36:53;4.85;;;2.38;;
43837;SDS011;65998;46.256;7.534;2024-01-10T07:39:18;6.07;;;2.00;;
43837;SDS011;65998;46.256;7.534;2024-01-10T07:41:44;4.78;;;1.80;;
43837;SDS011;65998;46.256;7.534;2024-01-10T07:44:11;3.85;;;1.33;;
43837;SDS011;65998;46.256;7.534;2024-01-10T07:46:37;4.50;;;1.20;;
43837;SDS011;65998;46.256;7.534;2024-01-10T07:49:03;4.53;;;1.55;;
43837;SDS011;65998;46.256;7.534;2024-01-10T07:51:30;7.97;;;2.63;;
43837;SDS011;65998;46.256;7.534;2024-01-10T07:53:56;3.88;;;1.50;;
43837;SDS011;65998;46.256;7.534;2024-01-10T07:56:22;4.32;;;1.30;;
43837;SDS011;65998;46.256;7.534;2024-01-10T07:58:48;5.27;;;2.07;;
43837;SDS011;65998;46.256;7.534;2024-01-10T08:01:14;5.60;;;2.10;;
43837;SDS011;65998;46.256;7.534;2024-01-10T08:03:40;7.50;;;3.05;;
43837;SDS011;65998;46.256;7.534;2024-01-10T08:06:06;4.80;;;1.30;;
43837;SDS011;65998;46.256;7.534;2024-01-10T08:08:32;3.38;;;0.95;;
43837;SDS011;65998;46.256;7.534;2024-01-10T08:10:58;4.55;;;1.55;;
43837;SDS011;65998;46.256;7.534;2024-01-10T08:13:24;7.80;;;1.53;;
43837;SDS011;65998;46.256;7.534;2024-01-10T08:15:50;9.18;;;4.93;;
43837;SDS011;65998;46.256;7.534;2024-01-10T08:18:16;6.17;;;2.30;;
43837;SDS011;65998;46.256;7.534;2024-01-10T08:20:42;5.20;;;1.48;;
43837;SDS011;65998;46.256;7.534;2024-01-10T08:23:07;5.03;;;1.20;;
43837;SDS011;65998;46.256;7.534;2024-01-10T08:25:33;5.53;;;1.08;;
43837;SDS011;65998;46.256;7.534;2024-01-10T08:27:59;2.50;;;0.70;;
43837;SDS011;65998;46.256;7.534;2024-01-10T08:30:25;5.88;;;1.30;;
43837;SDS011;65998;46.256;7.534;2024-01-10T08:32:53;4.00;;;1.20;;
43837;SDS011;65998;46.256;7.534;2024-01-10T08:35:20;5.32;;;1.60;;
43837;SDS011;65998;46.256;7.534;2024-01-10T08:37:45;6.57;;;1.60;;
43837;SDS011;65998;46.256;7.534;2024-01-10T08:40:11;2.83;;;0.77;;
43837;SDS011;65998;46.256;7.534;2024-01-10T08:42:38;2.72;;;0.88;;
43837;SDS011;65998;46.256;7.534;2024-01-10T08:45:04;3.78;;;1.38;;
43837;SDS011;65998;46.256;7.534;2024-01-10T08:47:30;10.33;;;3.53;;
43837;SDS011;65998;46.256;7.534;2024-01-10T08:49:56;5.88;;;2.15;;
43837;SDS011;65998;46.256;7.534;2024-01-10T08:52:22;6.35;;;2.83;;
43837;SDS011;65998;46.256;7.534;2024-01-10T08:54:48;5.47;;;2.10;;
43837;SDS011;65998;46.256;7.534;2024-01-10T08:57:14;4.85;;;1.70;;
43837;SDS011;65998;46.256;7.534;2024-01-10T08:59:43;4.07;;;1.70;;
43837;SDS011;65998;46.256;7.534;2024-01-10T09:02:09;3.87;;;1.00;;
43837;SDS011;65998;46.256;7.534;2024-01-10T09:04:35;2.83;;;0.93;;
43837;SDS011;65998;46.256;7.534;2024-01-10T09:07:01;3.50;;;0.95;;
43837;SDS011;65998;46.256;7.534;2024-01-10T09:09:27;4.13;;;0.97;;
43837;SDS011;65998;46.256;7.534;2024-01-10T09:11:52;3.42;;;1.05;;
43837;SDS011;65998;46.256;7.534;2024-01-10T09:14:18;4.90;;;1.30;;
43837;SDS011;65998;46.256;7.534;2024-01-10T09:16:44;3.27;;;0.83;;
43837;SDS011;65998;46.256;7.534;2024-01-10T09:19:10;4.20;;;0.88;;
43837;SDS011;65998;46.256;7.534;2024-01-10T09:21:36;3.03;;;0.83;;
43837;SDS011;65998;46.256;7.534;2024-01-10T09:24:02;2.70;;;0.93;;
43837;SDS011;65998;46.256;7.534;2024-01-10T09:26:28;4.32;;;0.80;;
43837;SDS011;65998;46.256;7.534;2024-01-10T09:28:54;4.20;;;1.10;;
43837;SDS011;65998;46.256;7.534;2024-01-10T09:31:19;5.45;;;1.20;;
43837;SDS011;65998;46.256;7.534;2024-01-10T09:33:45;5.30;;;1.10;;
43837;SDS011;65998;46.256;7.534;2024-01-10T09:36:11;3.20;;;1.13;;
43837;SDS011;65998;46.256;7.534;2024-01-10T09:38:37;3.58;;;0.88;;
43837;SDS011;65998;46.256;7.534;2024-01-10T09:41:03;3.40;;;0.80;;
43837;SDS011;65998;46.256;7.534;2024-01-10T09:43:30;2.33;;;0.80;;
43837;SDS011;65998;46.256;7.534;2024-01-10T09:45:57;5.22;;;0.90;;
43837;SDS011;65998;46.256;7.534;2024-01-10T09:48:26;2.22;;;0.70;;
43837;SDS011;65998;46.256;7.534;2024-01-10T09:50:51;2.60;;;0.70;;
43837;SDS011;65998;46.256;7.534;2024-01-10T09:53:36;3.00;;;0.80;;
43837;SDS011;65998;46.256;7.534;2024-01-10T09:56:09;6.10;;;2.40;;
43837;SDS011;65998;46.256;7.534;2024-01-10T09:58:35;3.75;;;1.48;;
43837;SDS011;65998;46.256;7.534;2024-01-10T10:01:01;4.45;;;1.40;;
43837;SDS011;65998;46.256;7.534;2024-01-10T10:03:27;3.10;;;0.80;;
43837;SDS011;65998;46.256;7.534;2024-01-10T10:05:53;2.70;;;0.73;;
43837;SDS011;65998;46.256;7.534;2024-01-10T10:08:19;3.50;;;1.02;;
43837;SDS011;65998;46.256;7.534;2024-01-10T10:10:45;4.07;;;1.60;;
43837;SDS011;65998;46.256;7.534;2024-01-10T10:13:11;3.67;;;1.05;;
43837;SDS011;65998;46.256;7.534;2024-01-10T10:15:59;2.55;;;0.70;;
43837;SDS011;65998;46.256;7.534;2024-01-10T10:18:26;2.58;;;0.50;;
43837;SDS011;65998;46.256;7.534;2024-01-10T10:23:58;3.83;;;1.00;;
43837;SDS011;65998;46.256;7.534;2024-01-10T10:26:25;10.32;;;3.20;;
43837;SDS011;65998;46.256;7.534;2024-01-10T10:28:52;24.40;;;9.23;;
43837;SDS011;65998;46.256;7.534;2024-01-10T10:31:18;14.73;;;5.20;;
43837;SDS011;65998;46.256;7.534;2024-01-10T10:33:45;14.70;;;5.10;;
43837;SDS011;65998;46.256;7.534;2024-01-10T10:36:13;5.50;;;2.05;;
43837;SDS011;65998;46.256;7.534;2024-01-10T10:38:39;5.15;;;1.90;;
43837;SDS011;65998;46.256;7.534;2024-01-10T10:41:06;2.70;;;0.60;;
43837;SDS011;65998;46.256;7.534;2024-01-10T10:43:34;2.22;;;0.70;;
43837;SDS011;65998;46.256;7.534;2024-01-10T10:46:00;2.00;;;0.50;;
43837;SDS011;65998;46.256;7.534;2024-01-10T10:48:26;2.70;;;0.60;;
43837;SDS011;65998;46.256;7.534;2024-01-10T10:53:37;2.65;;;0.60;;
43837;SDS011;65998;46.256;7.534;2024-01-10T10:56:04;1.70;;;0.40;;
43837;SDS011;65998;46.256;7.534;2024-01-10T10:58:33;2.70;;;0.80;;
43837;SDS011;65998;46.256;7.534;2024-01-10T11:01:00;2.17;;;0.68;;
43837;SDS011;65998;46.256;7.534;2024-01-10T11:03:29;2.58;;;0.60;;
43837;SDS011;65998;46.256;7.534;2024-01-10T11:05:56;2.13;;;0.55;;
43837;SDS011;65998;46.256;7.534;2024-01-10T11:08:24;2.58;;;0.80;;
43837;SDS011;65998;46.256;7.534;2024-01-10T11:10:51;3.13;;;0.80;;
43837;SDS011;65998;46.256;7.534;2024-01-10T11:13:26;2.78;;;0.70;;
43837;SDS011;65998;46.256;7.534;2024-01-10T11:24:14;2.15;;;0.63;;
43837;SDS011;65998;46.256;7.534;2024-01-10T11:26:40;3.00;;;0.70;;
43837;SDS011;65998;46.256;7.534;2024-01-10T11:29:06;4.13;;;0.90;;
43837;SDS011;65998;46.256;7.534;2024-01-10T11:31:32;2.78;;;0.70;;
43837;SDS011;65998;46.256;7.534;2024-01-10T11:33:58;5.10;;;1.60;;
43837;SDS011;65998;46.256;7.534;2024-01-10T11:36:25;3.95;;;0.95;;
43837;SDS011;65998;46.256;7.534;2024-01-10T11:38:58;3.33;;;1.20;;
43837;SDS011;65998;46.256;7.534;2024-01-10T11:41:29;2.63;;;0.60;;
43837;SDS011;65998;46.256;7.534;2024-01-10T11:46:37;2.75;;;0.60;;
43837;SDS011;65998;46.256;7.534;2024-01-10T11:49:07;3.10;;;0.65;;
43837;SDS011;65998;46.256;7.534;2024-01-10T11:51:36;2.10;;;0.60;;
43837;SDS011;65998;46.256;7.534;2024-01-10T11:54:03;1.73;;;0.50;;
43837;SDS011;65998;46.256;7.534;2024-01-10T11:56:42;2.35;;;0.63;;
43837;SDS011;65998;46.256;7.534;2024-01-10T11:59:13;2.58;;;0.70;;
43837;SDS011;65998;46.256;7.534;2024-01-10T12:01:40;2.60;;;0.70;;
43837;SDS011;65998;46.256;7.534;2024-01-10T12:04:07;2.63;;;0.70;;
43837;SDS011;65998;46.256;7.534;2024-01-10T12:06:37;2.97;;;0.55;;
43837;SDS011;65998;46.256;7.534;2024-01-10T12:09:04;2.08;;;0.43;;
43837;SDS011;65998;46.256;7.534;2024-01-10T12:11:30;2.05;;;0.43;;
43837;SDS011;65998;46.256;7.534;2024-01-10T12:13:57;2.40;;;0.47;;
43837;SDS011;65998;46.256;7.534;2024-01-10T12:16:23;2.00;;;0.60;;
43837;SDS011;65998;46.256;7.534;2024-01-10T12:18:49;2.28;;;0.60;;
43837;SDS011;65998;46.256;7.534;2024-01-10T12:21:15;2.50;;;0.68;;
43837;SDS011;65998;46.256;7.534;2024-01-10T12:23:41;2.73;;;1.20;;
43837;SDS011;65998;46.256;7.534;2024-01-10T12:26:07;2.03;;;0.63;;
43837;SDS011;65998;46.256;7.534;2024-01-10T12:28:35;2.80;;;0.90;;
43837;SDS011;65998;46.256;7.534;2024-01-10T12:31:01;2.57;;;0.90;;
43837;SDS011;65998;46.256;7.534;2024-01-10T12:33:30;2.42;;;0.70;;
43837;SDS011;65998;46.256;7.534;2024-01-10T12:36:08;2.50;;;0.70;;
43837;SDS011;65998;46.256;7.534;2024-01-10T12:38:36;2.78;;;0.55;;
43837;SDS011;65998;46.256;7.534;2024-01-10T12:41:03;1.92;;;0.50;;
43837;SDS011;65998;46.256;7.534;2024-01-10T12:43:30;2.23;;;0.50;;
43837;SDS011;65998;46.256;7.534;2024-01-10T12:48:32;1.95;;;0.45;;
43837;SDS011;65998;46.256;7.534;2024-01-10T12:50:58;1.95;;;0.45;;
43837;SDS011;65998;46.256;7.534;2024-01-10T12:53:24;1.98;;;0.50;;
43837;SDS011;65998;46.256;7.534;2024-01-10T12:55:50;1.73;;;0.40;;
43837;SDS011;65998;46.256;7.534;2024-01-10T12:58:16;2.20;;;0.60;;
43837;SDS011;65998;46.256;7.534;2024-01-10T13:00:42;2.13;;;0.50;;
43837;SDS011;65998;46.256;7.534;2024-01-10T13:03:08;2.58;;;0.60;;
43837;SDS011;65998;46.256;7.534;2024-01-10T13:05:34;2.85;;;0.95;;
43837;SDS011;65998;46.256;7.534;2024-01-10T13:08:00;3.42;;;0.90;;
43837;SDS011;65998;46.256;7.534;2024-01-10T13:10:25;2.03;;;0.60;;
43837;SDS011;65998;46.256;7.534;2024-01-10T13:12:51;1.70;;;0.47;;
43837;SDS011;65998;46.256;7.534;2024-01-10T13:15:17;1.83;;;0.40;;
43837;SDS011;65998;46.256;7.534;2024-01-10T13:17:43;2.33;;;0.70;;
43837;SDS011;65998;46.256;7.534;2024-01-10T13:20:09;2.73;;;0.70;;
43837;SDS011;65998;46.256;7.534;2024-01-10T13:22:35;2.10;;;0.40;;
43837;SDS011;65998;46.256;7.534;2024-01-10T13:25:01;1.55;;;0.35;;
43837;SDS011;65998;46.256;7.534;2024-01-10T13:27:27;1.07;;;0.20;;
43837;SDS011;65998;46.256;7.534;2024-01-10T13:29:52;1.42;;;0.30;;
43837;SDS011;65998;46.256;7.534;2024-01-10T13:32:18;1.60;;;0.20;;
43837;SDS011;65998;46.256;7.534;2024-01-10T13:34:44;1.87;;;0.30;;
43837;SDS011;65998;46.256;7.534;2024-01-10T13:37:10;1.75;;;0.38;;
43837;SDS011;65998;46.256;7.534;2024-01-10T13:39:36;1.90;;;0.40;;
43837;SDS011;65998;46.256;7.534;2024-01-10T13:42:02;2.85;;;0.93;;
43837;SDS011;65998;46.256;7.534;2024-01-10T13:44:28;2.17;;;0.60;;
43837;SDS011;65998;46.256;7.534;2024-01-10T13:46:54;1.95;;;0.47;;
43837;SDS011;65998;46.256;7.534;2024-01-10T13:49:19;2.13;;;0.60;;
43837;SDS011;65998;46.256;7.534;2024-01-10T13:51:45;2.50;;;0.68;;
43837;SDS011;65998;46.256;7.534;2024-01-10T13:54:11;2.23;;;0.70;;
43837;SDS011;65998;46.256;7.534;2024-01-10T13:56:37;2.63;;;0.70;;
43837;SDS011;65998;46.256;7.534;2024-01-10T13:59:03;5.75;;;1.52;;
43837;SDS011;65998;46.256;7.534;2024-01-10T14:01:29;29.38;;;7.25;;
43837;SDS011;65998;46.256;7.534;2024-01-10T14:03:54;32.42;;;8.00;;
43837;SDS011;65998;46.256;7.534;2024-01-10T14:06:20;20.10;;;5.05;;
43837;SDS011;65998;46.256;7.534;2024-01-10T14:08:46;9.13;;;3.40;;
43837;SDS011;65998;46.256;7.534;2024-01-10T14:11:12;3.33;;;1.00;;
43837;SDS011;65998;46.256;7.534;2024-01-10T14:13:38;12.10;;;4.17;;
43837;SDS011;65998;46.256;7.534;2024-01-10T14:16:04;31.08;;;9.38;;
43837;SDS011;65998;46.256;7.534;2024-01-10T14:18:30;31.65;;;7.60;;
43837;SDS011;65998;46.256;7.534;2024-01-10T14:20:56;12.63;;;2.73;;
43837;SDS011;65998;46.256;7.534;2024-01-10T14:23:21;26.40;;;6.50;;
43837;SDS011;65998;46.256;7.534;2024-01-10T14:25:47;15.00;;;4.40;;
43837;SDS011;65998;46.256;7.534;2024-01-10T14:28:13;7.03;;;2.47;;
43837;SDS011;65998;46.256;7.534;2024-01-10T14:30:39;5.18;;;1.65;;
43837;SDS011;65998;46.256;7.534;2024-01-10T14:33:05;3.50;;;1.30;;
43837;SDS011;65998;46.256;7.534;2024-01-10T14:35:31;3.75;;;1.30;;
43837;SDS011;65998;46.256;7.534;2024-01-10T14:37:57;4.95;;;1.70;;
43837;SDS011;65998;46.256;7.534;2024-01-10T14:40:23;3.65;;;1.23;;
43837;SDS011;65998;46.256;7.534;2024-01-10T14:42:48;4.50;;;1.60;;
43837;SDS011;65998;46.256;7.534;2024-01-10T14:45:15;5.07;;;1.30;;
43837;SDS011;65998;46.256;7.534;2024-01-10T14:47:41;6.60;;;1.70;;
43837;SDS011;65998;46.256;7.534;2024-01-10T14:50:07;4.20;;;1.70;;
43837;SDS011;65998;46.256;7.534;2024-01-10T14:52:33;4.40;;;1.60;;
43837;SDS011;65998;46.256;7.534;2024-01-10T14:54:59;4.93;;;2.25;;
43837;SDS011;65998;46.256;7.534;2024-01-10T14:57:25;4.73;;;1.80;;
43837;SDS011;65998;46.256;7.534;2024-01-10T14:59:50;4.30;;;1.27;;
43837;SDS011;65998;46.256;7.534;2024-01-10T15:02:16;3.20;;;1.20;;